Terminal Aerodrome Forecast
Issued by NWS

Current Version | Previous Version | Text Only | Print | Product List | Glossary On
Versions: 1 2 3 4 5 6 7 8 9 10 11 12 13 14 15 16 17 18 19 20 21
000
FTUS44 KBMX 031250 AAA
TAFMGM
TAF AMD
KMGM 031250Z 0313/0412 22007KT P6SM SCT015
     FM031800 25010KT P6SM OVC250
     FM040400 24004KT P6SM OVC250
     FM040700 21005KT P6SM VCSH OVC250
     FM040900 21003KT 4SM SHRA OVC025=

USA.gov is the U.S. government's official web portal to all federal, state and local government web resources and services.